CDT,Max TemperatureF,Mean TemperatureF,Min TemperatureF,Max Dew PointF,MeanDew PointF,Min DewpointF,Max Humidity, Mean Humidity, Min Humidity, Max Sea Level PressureIn, Mean Sea Level PressureIn, Min Sea Level PressureIn, Max VisibilityMiles, Mean VisibilityMiles, Min VisibilityMiles, Max Wind SpeedMPH, Mean Wind SpeedMPH, Max Gust SpeedMPH,PrecipitationIn, CloudCover, Events, WindDirDegrees
2012-10-1,80,70,60,61,54,47,94,64,31,29.85,29.80,29.76,10.0,10.0,10.0,18,8,25,0.00,1,,331
2012-10-2,78,69,60,58,54,50,84,64,40,29.95,29.90,29.85,10.0,10.0,10.0,9,5,18,0.00,1,,324
2012-10-3,81,68,55,58,55,51,98,66,36,30.05,29.98,29.94,10.0,9.9,7.0,13,4,21,0.00,1,,177
2012-10-4,85,71,57,61,58,54,94,65,39,30.18,30.10,30.05,10.0,10.0,10.0,13,5,21,0.00,1,,145
2012-10-5,71,62,53,68,58,47,97,81,67,30.12,30.07,30.04,10.0,9.7,2.0,17,7,24,0.00,8,Rain,14
2012-10-6,53,48,44,47,42,38,90,78,63,30.27,30.19,30.13,10.0,10.0,10.0,15,8,20,0.00,8,Rain,26
2012-10-7,53,47,41,42,36,32,85,63,45,30.30,30.25,30.19,10.0,10.0,10.0,9,4,,0.00,7,Rain,356
2012-10-8,65,52,38,42,38,35,92,63,36,30.26,30.18,30.07,10.0,9.9,7.0,7,2,,0.00,0,,151
2012-10-9,69,58,46,60,52,42,92,78,65,30.10,30.00,29.89,10.0,7.6,1.8,12,6,20,0.00,6,,154
2012-10-10,71,65,60,58,57,55,90,75,59,30.20,30.12,30.02,10.0,10.0,10.0,13,4,17,0.00,8,,90
2012-10-11,81,71,61,69,60,50,91,73,66,30.18,30.13,30.07,10.0,10.0,10.0,13,8,17,0.00,6,,135
2012-10-12,83,75,67,69,67,64,96,82,57,30.20,30.14,30.11,10.0,9.4,5.0,12,4,16,0.00,5,Thunderstorm,168
2012-10-13,82,73,64,69,65,62,97,79,53,30.09,29.98,29.82,10.0,9.7,3.0,17,8,30,0.00,5,Rain-Thunderstorm,164
2012-10-14,79,68,59,62,55,49,97,67,38,30.07,29.98,29.84,10.0,10.0,10.0,18,10,32,0.00,0,Rain-Thunderstorm,285
2012-10-15,81,66,50,53,49,45,94,57,28,30.11,30.03,29.96,10.0,9.9,5.0,7,4,,0.00,0,,252
2012-10-16,75,64,53,58,52,47,88,68,45,29.98,29.83,29.69,10.0,10.0,10.0,14,5,22,0.00,1,,172
2012-10-17,84,72,59,67,59,47,97,72,36,29.80,29.62,29.51,10.0,9.6,4.0,21,9,28,0.00,5,,226
2012-10-18,71,59,47,44,33,25,68,38,19,29.98,29.91,29.81,10.0,10.0,10.0,21,9,28,0.00,0,,304
2012-10-19,73,60,48,38,32,28,59,37,19,29.96,29.91,29.87,10.0,10.0,10.0,22,9,29,0.00,1,,286
2012-10-20,83,62,42,63,50,37,90,63,31,29.90,29.84,29.75,10.0,10.0,10.0,13,5,22,0.00,1,,156
2012-10-21,84,76,68,70,65,57,85,72,59,29.91,29.86,29.81,10.0,10.0,10.0,15,8,25,0.00,5,,158
2012-10-22,83,76,69,69,67,64,94,81,59,30.00,29.95,29.90,10.0,10.0,7.0,14,8,23,0.00,6,Rain,171
2012-10-23,78,73,68,68,66,63,90,78,66,29.98,29.94,29.89,10.0,10.0,10.0,14,7,20,0.00,6,,175
2012-10-24,82,74,65,66,63,62,92,75,52,30.01,29.92,29.85,10.0,10.0,10.0,13,7,22,0.00,2,,168
2012-10-25,77,64,50,68,58,40,93,80,65,30.07,29.92,29.81,10.0,10.0,7.0,21,9,29,0.00,7,Rain,220
2012-10-26,54,47,39,41,36,32,81,64,47,30.31,30.22,30.07,10.0,10.0,10.0,21,12,26,0.00,4,Rain,2
2012-10-27,57,45,33,33,30,26,91,62,31,30.33,30.24,30.15,10.0,10.0,7.0,10,5,17,0.00,0,,353
2012-10-28,61,47,33,34,27,19,88,53,20,30.29,30.23,30.19,10.0,10.0,10.0,10,4,17,0.00,0,,351
2012-10-29,64,49,34,34,30,26,81,51,27,30.33,30.23,30.13,10.0,9.7,2.5,8,2,,0.00,0,,88
2012-10-30,74,54,35,43,38,32,89,56,29,30.13,30.02,29.92,10.0,9.9,7.0,9,3,,0.00,0,,207
2012-10-31,79,60,42,48,44,41,95,59,28,30.01,29.96,29.92,10.0,9.9,7.0,8,3,,0.00,0,,343